Terminal Aerodrome Forecast
Issued by NWS

Home | Current Version | Previous Version | Graphics & Text | Print | Product List | Glossary On
Versions: 1 2 3 4 5 6 7 8 9 10 11 12 13 14 15 16 17 18 19 20 21 22 23 24
354
FTUS43 KLOT 212320
TAFMDW
TAF
KMDW 212320Z 2200/2306 07008KT P6SM SCT100 OVC150
     FM220300 05002KT P6SM OVC200
     FM221600 07012KT P6SM BKN250
     FM230200 06007KT P6SM SCT250=

USA.gov is the U.S. government's official web portal to all federal, state and local government web resources and services.